createdAt,value
2018-09-18T00:01:39.096Z,8.53
2018-09-18T00:04:06.624Z,8.30
2018-09-18T00:06:34.039Z,8.20
2018-09-18T00:09:01.948Z,8.18
2018-09-18T00:11:29.464Z,8.23
2018-09-18T00:13:57.003Z,8.68
2018-09-18T00:16:24.483Z,8.30
2018-09-18T00:18:51.913Z,8.50
2018-09-18T00:21:19.406Z,8.63
2018-09-18T00:23:46.962Z,8.30
2018-09-18T00:26:14.549Z,8.30
2018-09-18T00:28:42.268Z,8.58
2018-09-18T00:31:09.830Z,8.80
2018-09-18T00:33:37.325Z,8.55
2018-09-18T00:36:04.910Z,8.60
2018-09-18T00:38:32.414Z,8.78
2018-09-18T00:40:59.964Z,8.63
2018-09-18T00:43:27.473Z,8.88
2018-09-18T00:45:55.022Z,8.28
2018-09-18T00:48:22.605Z,9.03
2018-09-18T00:50:50.050Z,8.55
2018-09-18T00:53:17.449Z,8.73
2018-09-18T00:55:45.266Z,8.40
2018-09-18T00:58:12.683Z,8.63
2018-09-18T01:00:40.205Z,8.85
2018-09-18T01:03:07.619Z,8.65
2018-09-18T01:05:35.141Z,8.53
2018-09-18T01:08:02.766Z,8.53
2018-09-18T01:10:30.228Z,8.25
2018-09-18T01:12:57.675Z,8.05
2018-09-18T01:15:25.134Z,8.35
2018-09-18T01:17:52.692Z,8.58
2018-09-18T06:20:22.061Z,14.58
2018-09-18T06:22:49.534Z,13.98
2018-09-18T06:25:17.036Z,14.07
2018-09-18T06:27:44.439Z,13.80
2018-09-18T06:30:11.906Z,14.10
2018-09-18T06:32:39.303Z,14.07
2018-09-18T06:35:06.787Z,14.10
2018-09-18T06:37:34.233Z,14.00
2018-09-18T06:40:01.750Z,14.33
2018-09-18T06:42:29.159Z,15.35
2018-09-18T06:45:03.009Z,16.10
2018-09-18T06:47:30.506Z,16.95
2018-09-18T06:49:57.955Z,17.62
2018-09-18T06:52:25.409Z,16.80
2018-09-18T06:54:52.994Z,16.23
2018-09-18T06:57:20.561Z,16.17
2018-09-18T06:59:47.975Z,15.88
2018-09-18T07:02:15.495Z,15.75
2018-09-18T07:04:43.020Z,15.85
2018-09-18T07:07:10.557Z,15.13
2018-09-18T07:09:38.036Z,15.60
2018-09-18T07:12:05.534Z,14.20
2018-09-18T07:14:32.942Z,14.80
2018-09-18T07:17:01.071Z,15.78
2018-09-18T07:19:28.557Z,14.55
2018-09-18T07:21:55.949Z,13.80
2018-09-18T07:24:23.458Z,13.37
2018-09-18T07:26:50.849Z,13.43
2018-09-18T07:29:18.320Z,12.70
2018-09-18T07:31:45.715Z,12.57
2018-09-18T07:34:13.368Z,13.90
2018-09-18T07:36:40.768Z,13.25
2018-09-18T07:39:09.565Z,13.78
2018-09-18T07:41:37.028Z,13.32
2018-09-18T07:44:04.543Z,12.73
2018-09-18T07:46:32.016Z,12.53
2018-09-18T07:49:02.025Z,12.40
2018-09-18T07:51:31.197Z,11.83
2018-09-18T07:53:59.030Z,11.33
2018-09-18T07:56:27.161Z,11.45
2018-09-18T07:58:54.656Z,11.97
2018-09-18T08:01:22.584Z,11.40
2018-09-18T08:03:50.244Z,11.15
2018-09-18T08:06:17.793Z,11.03
2018-09-18T08:08:45.400Z,10.70
2018-09-18T08:11:12.892Z,10.80
2018-09-18T08:13:40.469Z,11.97
2018-09-18T08:16:08.161Z,13.50
2018-09-18T08:18:35.705Z,10.82
2018-09-18T08:21:10.813Z,10.75
2018-09-18T08:23:42.481Z,10.63
2018-09-18T08:26:15.135Z,10.43
2018-09-18T08:31:42.940Z,10.53
2018-09-18T08:34:10.347Z,10.03
2018-09-18T08:36:37.840Z,10.10
